Time;durP1;ratioP1;P1;durP2;ratioP2;P2;SDS_P1;SDS_P2;PMS_P1;PMS_P2;Temp;Humidity;BMP_temperature;BMP_pressure;BME280_temperature;BME280_humidity;BME280_pressure;Samples;Min_cycle;Max_cycle;Signal;HPM_P1;HPM_P2
2022/11/15 00:02:24;;;;;;;;;;;;;;;;;;5020836;28;679;-80
2022/11/15 00:05:09;;;;;;;;;;;;;;;;;;5031711;28;640;-79
2022/11/15 00:07:54;;;;;;;;;;;;;;;;;;5035745;28;1382;-79
2022/11/15 00:10:38;;;;;;;;;;;;;;;;;;5036671;28;640;-78
2022/11/15 00:13:23;;;;;;;;;;;;;;;;;;5035669;28;653;-79
2022/11/15 00:16:09;;;;;;;;;;;;;;;;;;5034722;28;596;-79
2022/11/15 00:18:57;;;;;;;;;;;;;;;;;;5031457;28;1951;-80
2022/11/15 00:21:41;;;;;;;;;;;;;;;;;;5030018;28;1909;-78
2022/11/15 00:24:26;;;;;;;;;;;;;;;;;;5027688;28;1916;-79
2022/11/15 00:27:11;;;;;;;;;;;;;;;;;;5034898;28;1982;-78
2022/11/15 00:29:56;;;;;;;;;;;;;;;;;;5036176;28;610;-80
2022/11/15 00:32:41;;;;;;;;;;;;;;;;;;5035044;28;616;-78
2022/11/15 00:35:27;;;;;;;;;;;;;;;;;;5024194;28;651;-79
2022/11/15 00:38:12;;;;;;;;;;;;;;;;;;5024645;28;1311;-79
2022/11/15 00:40:57;;;;;;;;;;;;;;;;;;5034984;28;681;-78
2022/11/15 00:43:43;;;;;;;;;;;;;;;;;;5033733;28;605;-79
2022/11/15 00:46:28;;;;;;;;;;;;;;;;;;5029292;28;1981;-79
2022/11/15 00:49:13;;;;;;;;;;;;;;;;;;5020271;28;1419;-79
2022/11/15 00:51:59;;;;;;;;;;;;;;;;;;5019407;28;1373;-78
2022/11/15 00:54:44;;;;;;;;;;;;;;;;;;5016554;28;691;-78
2022/11/15 00:57:29;;;;;;;;;;;;;;;;;;5014481;28;1404;-78
2022/11/15 01:00:14;;;;;;;;;;;;;;;;;;5018078;28;659;-77
2022/11/15 01:02:59;;;;;;;;;;;;;;;;;;5022115;28;577;-79
2022/11/15 01:05:44;;;;;;;;;;;;;;;;;;5022584;28;1956;-79
2022/11/15 01:08:30;;;;;;;;;;;;;;;;;;5023244;28;2074;-79
2022/11/15 01:11:15;;;;;;;;;;;;;;;;;;5023617;28;1189;-79
2022/11/15 01:14:00;;;;;;;;;;;;;;;;;;5023988;28;569;-79
2022/11/15 01:16:44;;;;;;;;;;;;;;;;;;5028147;28;1908;-81
2022/11/15 01:19:29;;;;;;;;;;;;;;;;;;5033469;28;1829;-79
2022/11/15 01:22:14;;;;;;;;;;;;;;;;;;5031687;28;1980;-79
2022/11/15 01:25:00;;;;;;;;;;;;;;;;;;5021725;28;1162;-79
2022/11/15 01:27:45;;;;;;;;;;;;;;;;;;5018966;28;1963;-79
2022/11/15 01:30:30;;;;;;;;;;;;;;;;;;5017668;28;617;-78
2022/11/15 01:33:15;;;;;;;;;;;;;;;;;;5016314;28;601;-78
2022/11/15 01:36:00;;;;;;;;;;;;;;;;;;5017841;28;629;-78
2022/11/15 01:38:45;;;;;;;;;;;;;;;;;;5024017;28;1351;-78
2022/11/15 01:41:32;;;;;;;;;;;;;;;;;;5019818;28;594;-79
2022/11/15 01:44:37;;;;;;;;;;;;;;;;;;5016982;28;703;-78
2022/11/15 01:47:23;;;;;;;;;;;;;;;;;;5017140;28;1977;-79
2022/11/15 01:50:09;;;;;;;;;;;;;;;;;;5017188;28;558;-78
2022/11/15 01:52:54;;;;;;;;;;;;;;;;;;5015786;28;1569;-78
2022/11/15 01:55:39;;;;;;;;;;;;;;;;;;5011653;28;1103;-78
2022/11/15 01:58:25;;;;;;;;;;;;;;;;;;5019279;28;1350;-78
2022/11/15 02:01:10;;;;;;;;;;;;;;;;;;5019324;28;679;-79
2022/11/15 02:03:56;;;;;;;;;;;;;;;;;;5020446;28;634;-80
2022/11/15 02:06:41;;;;;;;;;;;;;;;;;;5019408;28;1910;-79
2022/11/15 02:09:26;;;;;;;;;;;;;;;;;;5020496;28;1472;-79
2022/11/15 02:12:12;;;;;;;;;;;;;;;;;;5022554;28;641;-78
2022/11/15 02:14:58;;;;;;;;;;;;;;;;;;5022465;28;647;-78
2022/11/15 02:17:47;;;;;;;;;;;;;;;;;;5013384;28;1311;-79
2022/11/15 02:20:40;;;;;;;;;;;;;;;;;;5013425;28;693;-78
2022/11/15 02:23:32;;;;;;;;;;;;;;;;;;5012804;28;601;-78
2022/11/15 02:26:26;;;;;;;;;;;;;;;;;;5017977;28;1898;-80
2022/11/15 02:29:11;;;;;;;;;;;;;;;;;;5007618;28;2066;-76
2022/11/15 02:31:58;;;;;;;;;;;;;;;;;;5012861;28;633;-78
2022/11/15 02:34:45;;;;;;;;;;;;;;;;;;5012612;28;2015;-79
2022/11/15 02:37:31;;;;;;;;;;;;;;;;;;5014351;28;1396;-80
2022/11/15 02:40:18;;;;;;;;;;;;;;;;;;5017036;28;612;-79
2022/11/15 02:46:08;;;;;;;;;;;;;;;;;;5015749;28;1914;-78
2022/11/15 02:48:54;;;;;;;;;;;;;;;;;;5015053;28;1534;-78
2022/11/15 02:51:39;;;;;;;;;;;;;;;;;;5014962;28;649;-78
2022/11/15 02:54:25;;;;;;;;;;;;;;;;;;5015471;28;707;-78
2022/11/15 02:57:11;;;;;;;;;;;;;;;;;;5015548;28;1270;-77
2022/11/15 03:00:00;;;;;;;;;;;;;;;;;;5015343;28;581;-78
2022/11/15 03:02:56;;;;;;;;;;;;;;;;;;5061736;22;2061;-76
2022/11/15 03:05:44;;;;;;;;;;;;;;;;;;5074682;28;1105;-76
2022/11/15 03:08:30;;;;;;;;;;;;;;;;;;5074083;28;1969;-76
2022/11/15 03:11:15;;;;;;;;;;;;;;;;;;5072391;28;1319;-74
2022/11/15 03:14:01;;;;;;;;;;;;;;;;;;5054814;28;629;-76
2022/11/15 03:16:47;;;;;;;;;;;;;;;;;;5054653;28;586;-76
2022/11/15 03:19:33;;;;;;;;;;;;;;;;;;5054526;28;719;-77
2022/11/15 03:22:20;;;;;;;;;;;;;;;;;;5053301;28;1404;-76
2022/11/15 03:25:06;;;;;;;;;;;;;;;;;;5054144;28;676;-76
2022/11/15 03:27:51;;;;;;;;;;;;;;;;;;5054305;28;1971;-76
2022/11/15 03:30:36;;;;;;;;;;;;;;;;;;5054221;28;724;-76
2022/11/15 03:33:21;;;;;;;;;;;;;;;;;;5053430;28;1338;-74
2022/11/15 03:36:06;;;;;;;;;;;;;;;;;;5054349;28;680;-74
2022/11/15 03:38:53;;;;;;;;;;;;;;;;;;5054249;28;611;-74
2022/11/15 03:41:38;;;;;;;;;;;;;;;;;;5053360;28;1305;-74
2022/11/15 03:44:27;;;;;;;;;;;;;;;;;;5053726;28;591;-75
2022/11/15 03:47:12;;;;;;;;;;;;;;;;;;5054049;28;1902;-74
2022/11/15 03:49:58;;;;;;;;;;;;;;;;;;5053614;28;613;-74
2022/11/15 03:52:43;;;;;;;;;;;;;;;;;;5053272;28;1326;-77
2022/11/15 03:55:29;;;;;;;;;;;;;;;;;;5053726;28;1139;-74
2022/11/15 03:58:14;;;;;;;;;;;;;;;;;;5053617;28;668;-74
2022/11/15 04:00:59;;;;;;;;;;;;;;;;;;5053614;28;636;-74
2022/11/15 04:03:43;;;;;;;;;;;;;;;;;;5053681;28;680;-74
2022/11/15 04:06:28;;;;;;;;;;;;;;;;;;5053716;28;615;-73
2022/11/15 04:09:13;;;;;;;;;;;;;;;;;;5053342;28;595;-74
2022/11/15 04:11:59;;;;;;;;;;;;;;;;;;5052787;28;1323;-75
2022/11/15 04:15:06;;;;;;;;;;;;;;;;;;5053438;28;582;-75
2022/11/15 04:17:50;;;;;;;;;;;;;;;;;;5053287;28;649;-74
2022/11/15 04:26:39;;;;;;;;;;;;;;;;;;5054235;28;1967;-74
2022/11/15 04:29:34;;;;;;;;;;;;;;;;;;5058485;28;682;-74
2022/11/15 04:32:19;;;;;;;;;;;;;;;;;;5053452;28;1402;-74
2022/11/15 04:35:05;;;;;;;;;;;;;;;;;;5053172;28;580;-75
2022/11/15 04:37:50;;;;;;;;;;;;;;;;;;5052694;28;674;-75
2022/11/15 04:40:35;;;;;;;;;;;;;;;;;;5052930;28;621;-74
2022/11/15 04:43:19;;;;;;;;;;;;;;;;;;5050191;28;1404;-74
2022/11/15 04:46:06;;;;;;;;;;;;;;;;;;5052610;28;620;-77
2022/11/15 04:48:50;;;;;;;;;;;;;;;;;;5052674;28;1914;-74
2022/11/15 04:51:35;;;;;;;;;;;;;;;;;;5051919;28;1359;-74
2022/11/15 04:54:20;;;;;;;;;;;;;;;;;;5052590;28;657;-73
2022/11/15 04:57:05;;;;;;;;;;;;;;;;;;5034946;28;1132;-74
2022/11/15 04:59:50;;;;;;;;;;;;;;;;;;5032402;28;621;-74
2022/11/15 05:05:35;;;;;;;;;;;;;;;;;;5031580;28;1105;-74
2022/11/15 05:08:19;;;;;;;;;;;;;;;;;;5031480;28;1965;-74
2022/11/15 05:11:04;;;;;;;;;;;;;;;;;;5032418;28;1308;-74
2022/11/15 05:13:49;;;;;;;;;;;;;;;;;;5031336;28;657;-74
2022/11/15 05:16:34;;;;;;;;;;;;;;;;;;5030919;28;692;-73
2022/11/15 05:19:20;;;;;;;;;;;;;;;;;;5032452;28;702;-73
2022/11/15 05:22:05;;;;;;;;;;;;;;;;;;5031509;28;1324;-74
2022/11/15 05:24:50;;;;;;;;;;;;;;;;;;5032287;28;620;-74
2022/11/15 05:27:35;;;;;;;;;;;;;;;;;;5031915;28;1961;-74
2022/11/15 05:30:20;;;;;;;;;;;;;;;;;;5033822;28;1399;-74
2022/11/15 05:33:05;;;;;;;;;;;;;;;;;;5040599;28;1506;-75
2022/11/15 05:35:51;;;;;;;;;;;;;;;;;;5042910;28;1431;-75
2022/11/15 05:38:36;;;;;;;;;;;;;;;;;;5031624;28;611;-75
2022/11/15 05:41:21;;;;;;;;;;;;;;;;;;5034896;28;1541;-74
2022/11/15 05:44:07;;;;;;;;;;;;;;;;;;5041118;28;1319;-77
2022/11/15 05:46:53;;;;;;;;;;;;;;;;;;5048070;28;1147;-76
2022/11/15 05:49:38;;;;;;;;;;;;;;;;;;5042914;28;1320;-76
2022/11/15 05:52:25;;;;;;;;;;;;;;;;;;5030983;28;1357;-76
2022/11/15 05:55:10;;;;;;;;;;;;;;;;;;5031849;28;597;-76
2022/11/15 05:57:55;;;;;;;;;;;;;;;;;;5030616;28;581;-75
2022/11/15 06:00:39;;;;;;;;;;;;;;;;;;5032095;28;623;-75
2022/11/15 06:03:24;;;;;;;;;;;;;;;;;;5030735;28;1468;-75
2022/11/15 06:06:09;;;;;;;;;;;;;;;;;;5031591;28;616;-75
2022/11/15 06:08:55;;;;;;;;;;;;;;;;;;5031404;28;1966;-75
2022/11/15 06:11:40;;;;;;;;;;;;;;;;;;5031226;28;1326;-75
2022/11/15 06:14:25;;;;;;;;;;;;;;;;;;5034417;28;756;-74
2022/11/15 06:17:10;;;;;;;;;;;;;;;;;;5035678;28;663;-75
2022/11/15 06:19:55;;;;;;;;;;;;;;;;;;5035078;28;578;-74
2022/11/15 06:22:40;;;;;;;;;;;;;;;;;;5034239;28;1309;-74
2022/11/15 06:25:26;;;;;;;;;;;;;;;;;;5035354;28;691;-74
2022/11/15 06:28:11;;;;;;;;;;;;;;;;;;5035073;28;1910;-73
2022/11/15 06:30:56;;;;;;;;;;;;;;;;;;5035624;28;673;-75
2022/11/15 06:33:40;;;;;;;;;;;;;;;;;;5037951;28;1530;-75
2022/11/15 06:36:25;;;;;;;;;;;;;;;;;;4986186;28;1522;-74
2022/11/15 06:39:10;;;;;;;;;;;;;;;;;;4993018;28;1185;-73
2022/11/15 06:41:57;;;;;;;;;;;;;;;;;;4978809;28;1377;-74
2022/11/15 06:44:42;;;;;;;;;;;;;;;;;;4989692;28;864;-73
2022/11/15 06:47:27;;;;;;;;;;;;;;;;;;5025310;28;1906;-74
2022/11/15 06:50:12;;;;;;;;;;;;;;;;;;5045829;28;1189;-75
2022/11/15 06:53:00;;;;;;;;;;;;;;;;;;5053022;28;1317;-75
2022/11/15 06:55:46;;;;;;;;;;;;;;;;;;5053348;28;1392;-75
2022/11/15 06:58:32;;;;;;;;;;;;;;;;;;5047165;28;1428;-75
2022/11/15 07:01:16;;;;;;;;;;;;;;;;;;5051444;28;1412;-73
2022/11/15 07:04:01;;;;;;;;;;;;;;;;;;5043003;28;1032;-74
2022/11/15 07:06:47;;;;;;;;;;;;;;;;;;5050287;28;1404;-75
2022/11/15 07:09:32;;;;;;;;;;;;;;;;;;5043028;28;1910;-74
2022/11/15 07:12:16;;;;;;;;;;;;;;;;;;5041858;28;1482;-72
2022/11/15 07:15:03;;;;;;;;;;;;;;;;;;5043748;28;1383;-74
2022/11/15 07:17:47;;;;;;;;;;;;;;;;;;5053890;28;1035;-74
2022/11/15 07:20:32;;;;;;;;;;;;;;;;;;5047092;28;1363;-74
2022/11/15 07:23:17;;;;;;;;;;;;;;;;;;5046782;28;1429;-73
2022/11/15 07:26:02;;;;;;;;;;;;;;;;;;5051633;28;1186;-74
2022/11/15 07:28:46;;;;;;;;;;;;;;;;;;5053680;28;1969;-74
2022/11/15 07:31:32;;;;;;;;;;;;;;;;;;5051206;28;1336;-75
2022/11/15 07:34:17;;;;;;;;;;;;;;;;;;5054195;28;707;-75
2022/11/15 07:37:02;;;;;;;;;;;;;;;;;;5055533;28;640;-74
2022/11/15 07:39:47;;;;;;;;;;;;;;;;;;5061610;28;637;-74
2022/11/15 07:45:35;;;;;;;;;;;;;;;;;;5053212;28;687;-74
2022/11/15 07:48:21;;;;;;;;;;;;;;;;;;5047569;28;1969;-74
2022/11/15 07:51:06;;;;;;;;;;;;;;;;;;5053438;28;1417;-74
2022/11/15 07:53:50;;;;;;;;;;;;;;;;;;5053810;28;693;-74
2022/11/15 07:56:35;;;;;;;;;;;;;;;;;;5052976;28;1175;-74
2022/11/15 07:59:20;;;;;;;;;;;;;;;;;;5053084;28;706;-74
2022/11/15 08:02:05;;;;;;;;;;;;;;;;;;5051758;28;1401;-74
2022/11/15 08:04:51;;;;;;;;;;;;;;;;;;5053266;28;657;-75
2022/11/15 08:07:37;;;;;;;;;;;;;;;;;;5052638;28;607;-74
2022/11/15 08:10:22;;;;;;;;;;;;;;;;;;5053002;28;589;-75
2022/11/15 08:13:07;;;;;;;;;;;;;;;;;;5050355;28;1334;-74
2022/11/15 08:15:52;;;;;;;;;;;;;;;;;;5052986;28;627;-74
2022/11/15 08:18:37;;;;;;;;;;;;;;;;;;5053121;28;640;-74
2022/11/15 08:21:24;;;;;;;;;;;;;;;;;;5051300;28;1329;-74
2022/11/15 08:24:09;;;;;;;;;;;;;;;;;;5052537;28;580;-74
2022/11/15 08:26:54;;;;;;;;;;;;;;;;;;5052669;28;603;-74
2022/11/15 08:29:38;;;;;;;;;;;;;;;;;;5051975;28;1969;-74
2022/11/15 08:32:24;;;;;;;;;;;;;;;;;;5051317;28;1392;-74
2022/11/15 08:35:09;;;;;;;;;;;;;;;;;;5052415;28;589;-74
2022/11/15 08:37:55;;;;;;;;;;;;;;;;;;5051646;28;657;-74
2022/11/15 08:40:40;;;;;;;;;;;;;;;;;;5052380;28;710;-75
2022/11/15 08:43:24;;;;;;;;;;;;;;;;;;5051009;28;1428;-74
2022/11/15 08:46:09;;;;;;;;;;;;;;;;;;5048371;28;1511;-74
2022/11/15 08:48:54;;;;;;;;;;;;;;;;;;5049826;28;1899;-74
2022/11/15 08:51:39;;;;;;;;;;;;;;;;;;5051920;28;1407;-74
2022/11/15 08:54:25;;;;;;;;;;;;;;;;;;5052465;28;601;-74
2022/11/15 08:57:10;;;;;;;;;;;;;;;;;;5033959;28;1214;-74
2022/11/15 08:59:55;;;;;;;;;;;;;;;;;;5032659;28;635;-74
2022/11/15 09:02:40;;;;;;;;;;;;;;;;;;5048669;22;3579;-80
2022/11/15 09:05:25;;;;;;;;;;;;;;;;;;5053346;28;1661;-78
2022/11/15 09:08:11;;;;;;;;;;;;;;;;;;5055757;28;1914;-79
2022/11/15 09:10:57;;;;;;;;;;;;;;;;;;5053632;28;1044;-78
2022/11/15 09:13:42;;;;;;;;;;;;;;;;;;5056214;28;1357;-80
2022/11/15 09:16:27;;;;;;;;;;;;;;;;;;5055658;28;644;-81
2022/11/15 09:19:12;;;;;;;;;;;;;;;;;;5056221;28;637;-81
2022/11/15 09:21:57;;;;;;;;;;;;;;;;;;5055776;28;671;-79
2022/11/15 09:24:42;;;;;;;;;;;;;;;;;;5056072;28;1446;-82
2022/11/15 09:27:29;;;;;;;;;;;;;;;;;;5056238;28;667;-80
2022/11/15 09:30:14;;;;;;;;;;;;;;;;;;5056037;28;1926;-76
2022/11/15 09:32:59;;;;;;;;;;;;;;;;;;5057651;28;1405;-83
2022/11/15 09:35:43;;;;;;;;;;;;;;;;;;5061247;28;694;-80
2022/11/15 09:38:29;;;;;;;;;;;;;;;;;;5056785;28;645;-78
2022/11/15 09:41:19;;;;;;;;;;;;;;;;;;5056383;28;552;-78
2022/11/15 09:44:11;;;;;;;;;;;;;;;;;;5056428;28;1346;-80
2022/11/15 09:47:00;;;;;;;;;;;;;;;;;;5057585;28;585;-81
2022/11/15 09:49:51;;;;;;;;;;;;;;;;;;5076300;28;1906;-79
2022/11/15 09:52:24;;;;;;;;;;;;;;;;;;5077719;28;1407;-78
2022/11/15 09:54:51;;;;;;;;;;;;;;;;;;5064746;28;1075;-77
2022/11/15 09:57:18;;;;;;;;;;;;;;;;;;5064470;28;1079;-81
2022/11/15 09:59:50;;;;;;;;;;;;;;;;;;5059244;28;1032;-79
2022/11/15 10:02:20;;;;;;;;;;;;;;;;;;5057761;28;1118;-80
2022/11/15 10:04:46;;;;;;;;;;;;;;;;;;5058387;28;1349;-79
2022/11/15 10:07:14;;;;;;;;;;;;;;;;;;5059448;28;830;-80
2022/11/15 10:09:41;;;;;;;;;;;;;;;;;;5060050;28;1963;-80
2022/11/15 10:12:08;;;;;;;;;;;;;;;;;;5041431;28;1107;-79
2022/11/15 10:14:34;;;;;;;;;;;;;;;;;;5018825;28;1300;-79
2022/11/15 10:17:06;;;;;;;;;;;;;;;;;;5031189;28;1180;-79
2022/11/15 10:19:35;;;;;;;;;;;;;;;;;;5037707;28;1067;-79
2022/11/15 10:22:05;;;;;;;;;;;;;;;;;;5036000;28;1281;-79
2022/11/15 10:24:33;;;;;;;;;;;;;;;;;;5035065;28;1463;-78
2022/11/15 10:27:00;;;;;;;;;;;;;;;;;;5035696;28;1061;-77
2022/11/15 10:29:26;;;;;;;;;;;;;;;;;;5037362;28;1914;-79
2022/11/15 10:31:53;;;;;;;;;;;;;;;;;;5034861;28;1080;-79
2022/11/15 10:34:21;;;;;;;;;;;;;;;;;;5033508;28;1234;-79
2022/11/15 10:36:48;;;;;;;;;;;;;;;;;;5037862;28;1027;-79
2022/11/15 10:39:14;;;;;;;;;;;;;;;;;;5036136;28;866;-81
2022/11/15 10:41:41;;;;;;;;;;;;;;;;;;5033682;28;1739;-79
2022/11/15 10:44:21;;;;;;;;;;;;;;;;;;5052774;28;1379;-80
2022/11/15 10:46:50;;;;;;;;;;;;;;;;;;5036144;28;1106;-79
2022/11/15 10:49:17;;;;;;;;;;;;;;;;;;5036080;28;1977;-78
2022/11/15 10:51:46;;;;;;;;;;;;;;;;;;5053694;28;1092;-79
2022/11/15 10:54:13;;;;;;;;;;;;;;;;;;5055544;28;1289;-77
2022/11/15 10:56:39;;;;;;;;;;;;;;;;;;5037497;28;1456;-80
2022/11/15 10:59:05;;;;;;;;;;;;;;;;;;5037281;28;921;-78
2022/11/15 11:01:31;;;;;;;;;;;;;;;;;;5035340;28;1118;-77
2022/11/15 11:04:01;;;;;;;;;;;;;;;;;;5036299;28;1338;-78
2022/11/15 11:06:27;;;;;;;;;;;;;;;;;;5037000;28;1103;-77
2022/11/15 11:08:56;;;;;;;;;;;;;;;;;;5036053;28;1973;-78
2022/11/15 11:11:22;;;;;;;;;;;;;;;;;;5034248;28;1195;-77
2022/11/15 11:13:49;;;;;;;;;;;;;;;;;;5036212;28;1248;-77
2022/11/15 11:16:18;;;;;;;;;;;;;;;;;;5035700;28;941;-79
2022/11/15 11:18:45;;;;;;;;;;;;;;;;;;5036364;28;933;-78
2022/11/15 11:21:12;;;;;;;;;;;;;;;;;;5036228;28;1063;-77
2022/11/15 11:23:45;;;;;;;;;;;;;;;;;;5037123;28;1289;-76
2022/11/15 11:26:16;;;;;;;;;;;;;;;;;;5054531;28;1268;-77
2022/11/15 11:28:43;;;;;;;;;;;;;;;;;;5036473;28;1906;-79
2022/11/15 11:31:14;;;;;;;;;;;;;;;;;;5034833;28;1180;-77
2022/11/15 11:33:42;;;;;;;;;;;;;;;;;;5035692;28;1357;-79
2022/11/15 11:36:12;;;;;;;;;;;;;;;;;;5036137;28;1067;-78
2022/11/15 11:38:45;;;;;;;;;;;;;;;;;;5036066;28;1060;-80
2022/11/15 11:41:14;;;;;;;;;;;;;;;;;;5034535;28;1199;-76
2022/11/15 11:43:55;;;;;;;;;;;;;;;;;;5035277;28;1290;-77
2022/11/15 11:46:29;;;;;;;;;;;;;;;;;;5034043;28;1111;-78
2022/11/15 11:48:57;;;;;;;;;;;;;;;;;;5033683;28;1915;-78
2022/11/15 11:51:24;;;;;;;;;;;;;;;;;;5034735;28;1114;-82
2022/11/15 11:53:51;;;;;;;;;;;;;;;;;;5035618;28;1366;-78
2022/11/15 11:56:20;;;;;;;;;;;;;;;;;;5045828;28;1267;-78
2022/11/15 11:58:48;;;;;;;;;;;;;;;;;;5055277;28;815;-78
2022/11/15 12:01:15;;;;;;;;;;;;;;;;;;5054570;28;774;-79
2022/11/15 12:03:43;;;;;;;;;;;;;;;;;;5054333;28;1316;-78
2022/11/15 12:06:13;;;;;;;;;;;;;;;;;;5056661;28;754;-78
2022/11/15 12:08:41;;;;;;;;;;;;;;;;;;5057218;28;1083;-78
2022/11/15 12:11:08;;;;;;;;;;;;;;;;;;5053751;28;1971;-78
2022/11/15 12:13:36;;;;;;;;;;;;;;;;;;5054773;28;1325;-78
2022/11/15 12:16:06;;;;;;;;;;;;;;;;;;5056331;28;1075;-79
2022/11/15 12:18:32;;;;;;;;;;;;;;;;;;5072451;28;1160;-78
2022/11/15 12:21:00;;;;;;;;;;;;;;;;;;5072715;28;1129;-78
2022/11/15 12:23:28;;;;;;;;;;;;;;;;;;5056851;28;1348;-79
2022/11/15 12:25:55;;;;;;;;;;;;;;;;;;5057570;28;1103;-77
2022/11/15 12:28:23;;;;;;;;;;;;;;;;;;5056954;28;790;-78
2022/11/15 12:30:50;;;;;;;;;;;;;;;;;;5055644;28;1910;-78
2022/11/15 12:33:31;;;;;;;;;;;;;;;;;;5053097;28;1399;-77
2022/11/15 12:35:58;;;;;;;;;;;;;;;;;;5054136;28;997;-79
2022/11/15 12:38:39;;;;;;;;;;;;;;;;;;5054578;28;1048;-79
2022/11/15 12:41:16;;;;;;;;;;;;;;;;;;5054716;28;1422;-80
2022/11/15 12:43:43;;;;;;;;;;;;;;;;;;5054628;28;1324;-79
2022/11/15 12:46:21;;;;;;;;;;;;;;;;;;5054968;28;1036;-79
2022/11/15 12:48:50;;;;;;;;;;;;;;;;;;5054277;28;1099;-80
2022/11/15 12:51:16;;;;;;;;;;;;;;;;;;5053651;28;2001;-78
2022/11/15 12:53:43;;;;;;;;;;;;;;;;;;5054123;28;1292;-80
2022/11/15 12:56:10;;;;;;;;;;;;;;;;;;5041830;28;1467;-79
2022/11/15 12:58:41;;;;;;;;;;;;;;;;;;5034571;28;1252;-78
2022/11/15 13:01:08;;;;;;;;;;;;;;;;;;5032958;28;1196;-79
2022/11/15 13:03:34;;;;;;;;;;;;;;;;;;5032276;28;1755;-80
2022/11/15 13:06:08;;;;;;;;;;;;;;;;;;5033402;28;817;-79
2022/11/15 13:08:52;;;;;;;;;;;;;;;;;;5032882;28;1561;-79
2022/11/15 13:11:37;;;;;;;;;;;;;;;;;;5032295;28;1915;-80
2022/11/15 13:14:03;;;;;;;;;;;;;;;;;;5035886;28;1396;-78
2022/11/15 13:16:29;;;;;;;;;;;;;;;;;;5036134;28;1387;-78
2022/11/15 13:18:56;;;;;;;;;;;;;;;;;;5034826;28;983;-79
2022/11/15 13:24:11;;;;;;;;;;;;;;;;;;5032750;28;1500;-79
2022/11/15 13:26:38;;;;;;;;;;;;;;;;;;5034703;28;1036;-80
2022/11/15 13:29:05;;;;;;;;;;;;;;;;;;5035106;28;1048;-79
2022/11/15 13:31:35;;;;;;;;;;;;;;;;;;5033780;28;1903;-79
2022/11/15 13:34:03;;;;;;;;;;;;;;;;;;5038711;28;1359;-80
2022/11/15 13:36:32;;;;;;;;;;;;;;;;;;5032939;28;1400;-79
2022/11/15 13:39:00;;;;;;;;;;;;;;;;;;5034290;28;1218;-78
2022/11/15 13:41:27;;;;;;;;;;;;;;;;;;5034510;28;1577;-80
2022/11/15 13:43:53;;;;;;;;;;;;;;;;;;5029711;28;1479;-78
2022/11/15 13:46:21;;;;;;;;;;;;;;;;;;5026082;28;1087;-80
2022/11/15 13:48:47;;;;;;;;;;;;;;;;;;5049334;28;1137;-77
2022/11/15 13:51:16;;;;;;;;;;;;;;;;;;5032747;28;1979;-80
2022/11/15 13:53:46;;;;;;;;;;;;;;;;;;5035865;28;1376;-79
2022/11/15 13:56:12;;;;;;;;;;;;;;;;;;5030013;28;1465;-78
2022/11/15 13:58:39;;;;;;;;;;;;;;;;;;5034777;28;1633;-78
2022/11/15 14:01:05;;;;;;;;;;;;;;;;;;5033206;28;1095;-78
2022/11/15 14:03:32;;;;;;;;;;;;;;;;;;5033483;28;1323;-80
2022/11/15 14:06:06;;;;;;;;;;;;;;;;;;5045571;28;1086;-79
2022/11/15 14:08:32;;;;;;;;;;;;;;;;;;5053858;28;1071;-79
2022/11/15 14:11:10;;;;;;;;;;;;;;;;;;5053625;28;1910;-78
2022/11/15 14:13:36;;;;;;;;;;;;;;;;;;5053104;28;1308;-78
2022/11/15 14:16:16;;;;;;;;;;;;;;;;;;5054711;28;909;-79
2022/11/15 14:18:43;;;;;;;;;;;;;;;;;;5053855;28;877;-79
2022/11/15 14:21:10;;;;;;;;;;;;;;;;;;5054005;28;767;-78
2022/11/15 14:23:36;;;;;;;;;;;;;;;;;;5061703;28;1268;-78
2022/11/15 14:26:02;;;;;;;;;;;;;;;;;;5062633;28;1083;-77
2022/11/15 14:28:32;;;;;;;;;;;;;;;;;;5062066;28;1144;-77
2022/11/15 14:30:59;;;;;;;;;;;;;;;;;;5070411;28;1917;-79
2022/11/15 14:33:28;;;;;;;;;;;;;;;;;;5054387;28;1295;-79
2022/11/15 14:35:55;;;;;;;;;;;;;;;;;;5056100;28;885;-78
2022/11/15 14:38:21;;;;;;;;;;;;;;;;;;5041747;28;1142;-78
2022/11/15 14:40:48;;;;;;;;;;;;;;;;;;5037443;28;1022;-78
2022/11/15 14:43:14;;;;;;;;;;;;;;;;;;5037938;28;1298;-79
2022/11/15 14:45:41;;;;;;;;;;;;;;;;;;5052356;28;1190;-77
2022/11/15 14:48:08;;;;;;;;;;;;;;;;;;5035736;28;1048;-79
2022/11/15 14:50:34;;;;;;;;;;;;;;;;;;5038712;28;1969;-79
2022/11/15 14:53:01;;;;;;;;;;;;;;;;;;5036933;28;1328;-78
2022/11/15 14:55:28;;;;;;;;;;;;;;;;;;5037470;28;1241;-80
2022/11/15 14:57:54;;;;;;;;;;;;;;;;;;5037379;28;1055;-80
2022/11/15 15:00:20;;;;;;;;;;;;;;;;;;5037421;28;1526;-79
2022/11/15 15:02:48;;;;;;;;;;;;;;;;;;5037018;28;1496;-79
2022/11/15 15:05:16;;;;;;;;;;;;;;;;;;5053201;22;3759;-76
2022/11/15 15:07:42;;;;;;;;;;;;;;;;;;5080644;28;1691;-80
2022/11/15 15:10:09;;;;;;;;;;;;;;;;;;5082161;28;1886;-79
2022/11/15 15:12:35;;;;;;;;;;;;;;;;;;5064019;28;1640;-80
2022/11/15 15:15:01;;;;;;;;;;;;;;;;;;5084053;28;1169;-79
2022/11/15 15:17:27;;;;;;;;;;;;;;;;;;5074784;28;1431;-80
2022/11/15 15:19:55;;;;;;;;;;;;;;;;;;5066204;28;1415;-78
2022/11/15 15:22:25;;;;;;;;;;;;;;;;;;5068680;28;1201;-79
2022/11/15 15:24:51;;;;;;;;;;;;;;;;;;5077722;28;1080;-80
2022/11/15 15:27:17;;;;;;;;;;;;;;;;;;5077808;28;1426;-79
2022/11/15 15:29:43;;;;;;;;;;;;;;;;;;5076057;28;1448;-78
2022/11/15 15:32:10;;;;;;;;;;;;;;;;;;5067934;28;1968;-79
2022/11/15 15:34:36;;;;;;;;;;;;;;;;;;5070208;28;1442;-79
2022/11/15 15:37:12;;;;;;;;;;;;;;;;;;5075245;28;1373;-81
2022/11/15 15:39:39;;;;;;;;;;;;;;;;;;5077176;28;1362;-79
2022/11/15 15:42:05;;;;;;;;;;;;;;;;;;5069242;28;1072;-80
2022/11/15 15:44:31;;;;;;;;;;;;;;;;;;5058681;28;1096;-82
2022/11/15 15:46:58;;;;;;;;;;;;;;;;;;5056288;28;1630;-83
2022/11/15 15:49:24;;;;;;;;;;;;;;;;;;5056127;28;1648;-80
2022/11/15 15:51:51;;;;;;;;;;;;;;;;;;5073968;28;1906;-80
2022/11/15 15:54:18;;;;;;;;;;;;;;;;;;5063915;28;1579;-80
2022/11/15 15:56:44;;;;;;;;;;;;;;;;;;5067217;28;1430;-79
2022/11/15 15:59:10;;;;;;;;;;;;;;;;;;5069332;28;1126;-79
2022/11/15 16:01:37;;;;;;;;;;;;;;;;;;5048322;28;1447;-79
2022/11/15 16:04:03;;;;;;;;;;;;;;;;;;5049966;28;1396;-79
2022/11/15 16:06:33;;;;;;;;;;;;;;;;;;5064185;28;1599;-79
2022/11/15 16:08:59;;;;;;;;;;;;;;;;;;5068906;28;1661;-80
2022/11/15 16:11:27;;;;;;;;;;;;;;;;;;5045558;28;1985;-80
2022/11/15 16:13:53;;;;;;;;;;;;;;;;;;5072478;28;1167;-79
2022/11/15 16:16:19;;;;;;;;;;;;;;;;;;5075106;28;1383;-80
2022/11/15 16:18:45;;;;;;;;;;;;;;;;;;5070632;28;1463;-79
2022/11/15 16:21:12;;;;;;;;;;;;;;;;;;5078069;28;1190;-79
2022/11/15 16:23:38;;;;;;;;;;;;;;;;;;5074271;28;1082;-78
2022/11/15 16:26:07;;;;;;;;;;;;;;;;;;5076150;28;1388;-79
2022/11/15 16:28:35;;;;;;;;;;;;;;;;;;5043280;28;1463;-79
2022/11/15 16:31:02;;;;;;;;;;;;;;;;;;5006454;28;1993;-78
2022/11/15 16:33:28;;;;;;;;;;;;;;;;;;4992531;28;932;-80
2022/11/15 16:35:55;;;;;;;;;;;;;;;;;;5021531;28;1345;-79
2022/11/15 16:38:21;;;;;;;;;;;;;;;;;;5011079;28;1229;-78
2022/11/15 16:40:48;;;;;;;;;;;;;;;;;;5020435;28;1152;-79
2022/11/15 16:43:15;;;;;;;;;;;;;;;;;;5046184;28;1099;-79
2022/11/15 16:45:43;;;;;;;;;;;;;;;;;;5037005;28;1380;-79
2022/11/15 16:48:12;;;;;;;;;;;;;;;;;;5002681;28;1130;-79
2022/11/15 16:50:41;;;;;;;;;;;;;;;;;;5016749;28;1934;-78
2022/11/15 16:53:08;;;;;;;;;;;;;;;;;;5010323;28;1657;-79
2022/11/15 16:55:34;;;;;;;;;;;;;;;;;;5006346;28;1443;-77
2022/11/15 16:58:01;;;;;;;;;;;;;;;;;;5010414;28;1622;-78
2022/11/15 17:00:28;;;;;;;;;;;;;;;;;;5003908;28;1007;-78
2022/11/15 17:02:56;;;;;;;;;;;;;;;;;;4997588;28;1270;-78
2022/11/15 17:05:26;;;;;;;;;;;;;;;;;;5000802;28;1612;-79
2022/11/15 17:07:54;;;;;;;;;;;;;;;;;;5022367;28;886;-79
2022/11/15 17:10:21;;;;;;;;;;;;;;;;;;4998184;28;1514;-78
2022/11/15 17:12:47;;;;;;;;;;;;;;;;;;5015945;28;1945;-79
2022/11/15 17:15:16;;;;;;;;;;;;;;;;;;5015476;28;1502;-78
2022/11/15 17:17:42;;;;;;;;;;;;;;;;;;5014127;28;1067;-78
2022/11/15 17:20:13;;;;;;;;;;;;;;;;;;5009366;28;806;-77
2022/11/15 17:22:40;;;;;;;;;;;;;;;;;;5019542;28;1307;-78
2022/11/15 17:25:09;;;;;;;;;;;;;;;;;;4999117;28;1432;-79
2022/11/15 17:27:35;;;;;;;;;;;;;;;;;;5011595;28;865;-77
2022/11/15 17:30:02;;;;;;;;;;;;;;;;;;4998453;28;1334;-78
2022/11/15 17:32:28;;;;;;;;;;;;;;;;;;5015881;28;1942;-77
2022/11/15 17:34:55;;;;;;;;;;;;;;;;;;4998253;28;1188;-77
2022/11/15 17:37:25;;;;;;;;;;;;;;;;;;5061257;28;1373;-79
2022/11/15 17:39:51;;;;;;;;;;;;;;;;;;5050267;28;1040;-79
2022/11/15 17:42:18;;;;;;;;;;;;;;;;;;5028315;28;1040;-77
2022/11/15 17:44:44;;;;;;;;;;;;;;;;;;5012685;28;842;-78
2022/11/15 17:47:11;;;;;;;;;;;;;;;;;;5007184;28;1422;-78
2022/11/15 17:49:39;;;;;;;;;;;;;;;;;;5012491;28;1754;-79
2022/11/15 17:52:06;;;;;;;;;;;;;;;;;;5015661;28;2005;-77
2022/11/15 17:54:34;;;;;;;;;;;;;;;;;;5019835;28;918;-78
2022/11/15 17:57:00;;;;;;;;;;;;;;;;;;5019997;28;1274;-79
2022/11/15 17:59:27;;;;;;;;;;;;;;;;;;5021038;28;1533;-78
2022/11/15 18:01:53;;;;;;;;;;;;;;;;;;5020426;28;925;-78
2022/11/15 18:04:26;;;;;;;;;;;;;;;;;;5013662;28;1081;-78
2022/11/15 18:06:53;;;;;;;;;;;;;;;;;;5008158;28;1475;-78
2022/11/15 18:09:20;;;;;;;;;;;;;;;;;;5029791;28;1032;-77
2022/11/15 18:11:50;;;;;;;;;;;;;;;;;;5018428;28;1944;-77
2022/11/15 18:14:17;;;;;;;;;;;;;;;;;;5011314;28;778;-77
2022/11/15 18:16:43;;;;;;;;;;;;;;;;;;5009671;28;1313;-79
2022/11/15 18:19:12;;;;;;;;;;;;;;;;;;4999700;28;1423;-80
2022/11/15 18:21:54;;;;;;;;;;;;;;;;;;4976044;28;1428;-78
2022/11/15 18:24:21;;;;;;;;;;;;;;;;;;5008489;28;1633;-79
2022/11/15 18:26:49;;;;;;;;;;;;;;;;;;5018904;28;1502;-78
2022/11/15 18:29:16;;;;;;;;;;;;;;;;;;5011329;28;1613;-77
2022/11/15 18:31:42;;;;;;;;;;;;;;;;;;4990647;28;1926;-77
2022/11/15 18:34:09;;;;;;;;;;;;;;;;;;5007330;28;1179;-78